createdAt,value
2022-12-03T00:01:26.903Z,11.10
2022-12-03T00:03:54.118Z,11.50
2022-12-03T00:06:22.695Z,11.60
2022-12-03T00:08:49.842Z,11.80
2022-12-03T00:11:17.086Z,9.33
2022-12-03T00:13:44.240Z,11.20
2022-12-03T00:16:11.407Z,10.27
2022-12-03T00:18:38.570Z,12.40
2022-12-03T00:21:05.799Z,11.10
2022-12-03T00:23:38.642Z,11.40
2022-12-03T00:26:09.107Z,11.77
2022-12-03T00:28:36.241Z,10.50
2022-12-03T00:31:03.557Z,11.23
2022-12-03T00:33:30.908Z,12.23
2022-12-03T00:35:58.061Z,11.17
2022-12-03T00:38:25.199Z,11.07
2022-12-03T00:40:53.718Z,10.73
2022-12-03T00:43:20.892Z,12.27
2022-12-03T00:45:47.989Z,10.73
2022-12-03T00:48:15.103Z,11.83
2022-12-03T00:50:42.258Z,11.87
2022-12-03T00:53:09.379Z,11.00
2022-12-03T00:55:36.721Z,10.50
2022-12-03T00:58:05.140Z,11.80
2022-12-03T01:00:32.253Z,12.10
2022-12-03T01:02:59.438Z,12.03
2022-12-03T01:05:26.684Z,11.50
2022-12-03T01:07:54.147Z,10.73
2022-12-03T01:10:21.506Z,11.90
2022-12-03T01:12:48.609Z,10.97
2022-12-03T01:15:17.621Z,12.70
2022-12-03T01:17:44.810Z,11.13
2022-12-03T01:20:12.372Z,10.40
2022-12-03T01:22:39.501Z,11.60
2022-12-03T01:25:07.092Z,9.73
2022-12-03T01:27:34.163Z,10.70
2022-12-03T01:30:01.287Z,11.27
2022-12-03T01:32:29.717Z,10.40
2022-12-03T01:34:57.086Z,10.23
2022-12-03T01:37:25.620Z,10.37
2022-12-03T01:39:52.784Z,11.80
2022-12-03T01:42:22.007Z,10.27
2022-12-03T01:44:49.748Z,11.73
2022-12-03T01:47:18.294Z,13.07
2022-12-03T01:49:49.933Z,11.43
2022-12-03T01:52:18.187Z,10.63
2022-12-03T01:54:47.806Z,11.80
2022-12-03T01:57:19.635Z,11.10
2022-12-03T01:59:46.856Z,11.20
2022-12-03T02:02:15.080Z,11.00
2022-12-03T02:04:42.248Z,12.27
2022-12-03T02:07:21.412Z,11.50
2022-12-03T02:09:48.534Z,10.73
2022-12-03T02:12:16.531Z,12.17
2022-12-03T02:14:43.861Z,13.67
2022-12-03T02:17:11.480Z,11.73
2022-12-03T02:19:38.647Z,12.03
2022-12-03T02:22:09.520Z,12.20
2022-12-03T02:24:42.680Z,12.60
2022-12-03T02:27:11.120Z,10.93
2022-12-03T02:29:38.235Z,12.23
2022-12-03T02:32:05.551Z,12.63
2022-12-03T02:34:34.239Z,11.80
2022-12-03T02:37:01.657Z,14.20
2022-12-03T02:39:28.790Z,11.77
2022-12-03T02:41:55.899Z,9.63
2022-12-03T02:44:24.346Z,12.30
2022-12-03T02:46:51.512Z,12.90
2022-12-03T02:49:18.698Z,13.47
2022-12-03T02:51:45.772Z,11.67
2022-12-03T02:54:12.879Z,13.07
2022-12-03T02:56:40.010Z,12.03
2022-12-03T02:59:07.140Z,12.00
2022-12-03T03:01:35.709Z,10.90
2022-12-03T03:04:03.437Z,13.00
2022-12-03T03:06:30.954Z,11.60
2022-12-03T03:08:58.174Z,12.17
2022-12-03T03:11:25.519Z,12.90
2022-12-03T03:13:52.603Z,12.70
2022-12-03T03:16:19.742Z,11.27
2022-12-03T03:18:48.662Z,12.57
2022-12-03T03:21:15.789Z,12.33
2022-12-03T03:23:42.860Z,10.27
2022-12-03T03:26:11.573Z,11.20
2022-12-03T03:28:39.633Z,13.07
2022-12-03T03:31:08.640Z,11.70
2022-12-03T03:33:36.105Z,13.03
2022-12-03T03:36:04.763Z,12.00
2022-12-03T03:38:32.471Z,13.30
2022-12-03T03:41:01.685Z,13.00
2022-12-03T03:43:30.228Z,12.70
2022-12-03T03:45:57.580Z,12.57
2022-12-03T03:48:24.774Z,12.00
2022-12-03T03:50:52.481Z,12.83
2022-12-03T03:53:21.355Z,11.77
2022-12-03T03:55:48.765Z,13.80
2022-12-03T03:58:16.789Z,12.27
2022-12-03T04:00:44.403Z,11.63
2022-12-03T04:03:11.650Z,12.37
2022-12-03T04:05:38.974Z,13.07
2022-12-03T04:08:06.384Z,12.47
2022-12-03T04:10:34.852Z,11.60
2022-12-03T04:13:01.967Z,13.20
2022-12-03T04:15:29.458Z,12.40
2022-12-03T04:17:56.546Z,12.77
2022-12-03T04:20:23.647Z,12.47
2022-12-03T04:22:50.711Z,13.23
2022-12-03T04:25:17.808Z,12.80
2022-12-03T04:27:46.258Z,13.17
2022-12-03T04:30:13.669Z,12.67
2022-12-03T04:32:40.728Z,11.93
2022-12-03T04:35:08.007Z,11.03
2022-12-03T04:37:35.107Z,14.87
2022-12-03T04:40:02.211Z,10.90
2022-12-03T04:42:29.285Z,13.40
2022-12-03T04:44:58.188Z,12.30
2022-12-03T04:47:25.288Z,15.00
2022-12-03T04:49:52.480Z,12.07
2022-12-03T04:52:20.462Z,12.73
2022-12-03T04:54:47.570Z,13.07
2022-12-03T04:57:14.671Z,14.37
2022-12-03T04:59:41.732Z,13.20
2022-12-03T05:02:10.281Z,12.73
2022-12-03T05:04:37.432Z,11.40
2022-12-03T05:07:04.544Z,12.43
2022-12-03T05:09:32.906Z,12.73
2022-12-03T05:12:00.049Z,12.73
2022-12-03T05:14:27.161Z,12.40
2022-12-03T05:16:54.246Z,12.20
2022-12-03T05:19:22.770Z,13.10
2022-12-03T05:21:49.844Z,12.27
2022-12-03T05:24:16.942Z,13.50
2022-12-03T05:26:44.027Z,12.97
2022-12-03T05:29:11.113Z,13.43
2022-12-03T05:31:38.218Z,12.43
2022-12-03T05:34:05.345Z,12.80
2022-12-03T05:36:33.778Z,13.73
2022-12-03T05:39:00.885Z,11.60
2022-12-03T05:41:27.968Z,14.17
2022-12-03T05:43:55.133Z,14.53
2022-12-03T05:46:22.354Z,14.47
2022-12-03T05:48:49.508Z,12.53
2022-12-03T05:51:16.627Z,12.80
2022-12-03T05:53:45.061Z,14.40
2022-12-03T05:56:12.163Z,13.07
2022-12-03T05:58:39.255Z,12.07
2022-12-03T06:01:06.548Z,13.67
2022-12-03T06:03:33.934Z,12.57
2022-12-03T06:06:01.154Z,12.53
2022-12-03T06:08:28.265Z,13.50
2022-12-03T06:10:56.794Z,14.73
2022-12-03T06:13:23.865Z,15.30
2022-12-03T06:15:51.005Z,13.47
2022-12-03T06:18:18.186Z,13.10
2022-12-03T06:20:45.288Z,14.13
2022-12-03T06:23:12.385Z,14.40
2022-12-03T06:25:39.470Z,13.00
2022-12-03T06:28:07.922Z,13.97
2022-12-03T06:30:34.996Z,13.10
2022-12-03T06:33:02.105Z,13.67
2022-12-03T06:35:29.234Z,13.17
2022-12-03T06:37:56.319Z,12.50
2022-12-03T06:40:23.437Z,13.07
2022-12-03T06:42:50.498Z,14.83
2022-12-03T06:45:19.069Z,14.37
2022-12-03T06:47:46.166Z,12.30
2022-12-03T06:50:13.922Z,14.53
2022-12-03T06:52:41.034Z,12.33
2022-12-03T06:55:23.226Z,15.07
2022-12-03T06:57:50.363Z,13.43
2022-12-03T07:00:19.434Z,12.93
2022-12-03T07:02:46.580Z,14.83
2022-12-03T07:05:13.845Z,13.13
2022-12-03T07:07:41.044Z,13.00
2022-12-03T07:10:08.773Z,14.30
2022-12-03T07:12:35.901Z,12.73
2022-12-03T07:15:03.018Z,14.80
2022-12-03T07:17:31.489Z,13.10
2022-12-03T07:19:58.567Z,12.47
2022-12-03T07:22:25.676Z,14.97
2022-12-03T07:24:53.553Z,14.60
2022-12-03T07:27:20.800Z,12.77
2022-12-03T07:29:47.896Z,14.83
2022-12-03T07:32:14.986Z,15.07
2022-12-03T07:34:43.420Z,15.60
2022-12-03T07:37:10.504Z,14.00
2022-12-03T07:39:37.673Z,14.20
2022-12-03T07:42:04.875Z,17.97
2022-12-03T07:44:32.872Z,15.57
2022-12-03T07:47:00.091Z,16.07
2022-12-03T07:49:27.382Z,11.10
2022-12-03T07:51:55.791Z,14.43
2022-12-03T07:54:23.280Z,15.63
2022-12-03T07:56:50.380Z,15.50
2022-12-03T07:59:17.977Z,15.10
2022-12-03T08:01:45.163Z,14.27
2022-12-03T08:04:12.397Z,13.80
2022-12-03T08:06:39.498Z,13.87
2022-12-03T08:09:13.179Z,13.27
2022-12-03T08:11:42.939Z,14.90
2022-12-03T08:14:11.999Z,17.60
2022-12-03T08:16:40.431Z,12.40
2022-12-03T08:19:09.813Z,13.40
2022-12-03T08:21:37.224Z,14.87
2022-12-03T08:24:12.209Z,13.27
2022-12-03T08:26:41.041Z,12.43
2022-12-03T08:29:09.663Z,14.90
2022-12-03T08:31:36.794Z,13.53
2022-12-03T08:34:15.717Z,13.80
2022-12-03T08:36:42.797Z,13.03
2022-12-03T08:39:16.706Z,13.10
2022-12-03T08:41:45.215Z,13.00
2022-12-03T08:44:20.656Z,12.70
2022-12-03T08:46:49.753Z,12.33
2022-12-03T08:49:17.021Z,11.60
2022-12-03T08:51:44.152Z,14.10
2022-12-03T08:54:13.350Z,13.30
2022-12-03T08:56:41.763Z,12.20
2022-12-03T08:59:21.854Z,12.10
2022-12-03T09:01:49.542Z,14.20
2022-12-03T09:04:21.887Z,12.30
2022-12-03T09:06:49.246Z,14.57
2022-12-03T09:09:16.623Z,13.50
2022-12-03T09:11:43.846Z,13.23
2022-12-03T09:14:16.744Z,12.47
2022-12-03T09:16:46.952Z,12.03
2022-12-03T09:19:14.102Z,11.40
2022-12-03T09:21:41.208Z,11.53
2022-12-03T09:24:08.494Z,12.03
2022-12-03T09:26:35.600Z,13.97
2022-12-03T09:29:06.346Z,11.13
2022-12-03T09:31:36.149Z,11.87
2022-12-03T09:34:04.967Z,12.17
2022-12-03T09:36:32.086Z,11.63
2022-12-03T09:38:59.170Z,13.03
2022-12-03T09:41:26.717Z,13.20
2022-12-03T09:44:13.941Z,13.47
2022-12-03T09:46:42.364Z,12.20
2022-12-03T09:49:15.794Z,12.83
2022-12-03T09:51:44.237Z,12.70
2022-12-03T09:54:16.467Z,12.30
2022-12-03T09:56:43.656Z,11.37
2022-12-03T09:59:13.177Z,11.97
2022-12-03T10:01:40.547Z,11.87
2022-12-03T10:04:07.910Z,12.70
2022-12-03T10:06:38.842Z,12.20
2022-12-03T10:09:10.524Z,12.73
2022-12-03T10:11:37.605Z,11.80
2022-12-03T10:14:05.286Z,11.93
2022-12-03T10:16:32.618Z,13.27
2022-12-03T10:19:00.673Z,12.67
2022-12-03T10:21:30.176Z,11.53
2022-12-03T10:24:16.073Z,11.93
2022-12-03T10:26:45.033Z,12.53
2022-12-03T10:29:12.816Z,12.83
2022-12-03T10:31:39.993Z,12.40
2022-12-03T10:34:07.083Z,13.87
2022-12-03T10:36:34.163Z,12.67
2022-12-03T10:39:11.649Z,14.53
2022-12-03T10:41:39.369Z,12.13
2022-12-03T10:44:16.528Z,12.70
2022-12-03T10:46:43.768Z,13.90
2022-12-03T10:49:11.526Z,12.77
2022-12-03T10:51:39.718Z,14.40
2022-12-03T10:54:14.816Z,12.77
2022-12-03T10:56:41.888Z,12.67
2022-12-03T10:59:13.509Z,12.57
2022-12-03T11:01:42.025Z,13.80
2022-12-03T11:04:14.692Z,14.30
2022-12-03T11:06:41.826Z,13.83
2022-12-03T11:09:14.721Z,13.13
2022-12-03T11:11:41.847Z,13.33
2022-12-03T11:14:10.729Z,13.00
2022-12-03T11:17:07.972Z,13.90
2022-12-03T11:19:51.972Z,13.83
2022-12-03T11:22:26.621Z,14.40
2022-12-03T11:25:08.574Z,13.87
2022-12-03T11:27:35.684Z,12.60
2022-12-03T11:30:02.957Z,13.17
2022-12-03T11:32:44.919Z,12.97
2022-12-03T11:35:13.896Z,13.37
2022-12-03T11:37:41.048Z,13.20
2022-12-03T11:40:37.747Z,14.10
2022-12-03T11:43:10.245Z,12.83
2022-12-03T11:45:38.508Z,12.70
2022-12-03T11:48:10.841Z,13.97
2022-12-03T11:50:41.004Z,12.33
2022-12-03T11:53:16.742Z,13.23
2022-12-03T11:55:45.144Z,12.70
2022-12-03T11:58:15.885Z,14.53
2022-12-03T12:00:48.538Z,13.37
2022-12-03T12:03:22.054Z,14.03
2022-12-03T12:06:00.844Z,13.17
2022-12-03T12:08:27.947Z,12.70
2022-12-03T12:10:55.054Z,13.73
2022-12-03T12:13:29.085Z,13.30
2022-12-03T12:15:58.108Z,13.80
2022-12-03T12:18:35.562Z,13.33
2022-12-03T12:21:21.381Z,13.77
2022-12-03T12:23:49.873Z,12.93
2022-12-03T12:26:16.976Z,13.70
2022-12-03T12:28:44.109Z,13.23
2022-12-03T12:31:11.657Z,14.57
2022-12-03T12:33:38.808Z,15.00
2022-12-03T12:36:06.345Z,15.20
2022-12-03T12:38:33.487Z,13.20
2022-12-03T12:41:05.479Z,13.80
2022-12-03T12:43:32.571Z,14.03
2022-12-03T12:46:13.624Z,13.83
2022-12-03T12:48:46.085Z,13.73
2022-12-03T12:51:14.073Z,13.60
2022-12-03T12:53:41.945Z,14.70
2022-12-03T12:56:14.573Z,14.77
2022-12-03T12:58:42.458Z,14.83
2022-12-03T13:01:12.782Z,14.53
2022-12-03T13:03:40.109Z,13.53
2022-12-03T13:06:11.495Z,14.03
2022-12-03T13:08:39.431Z,12.97
2022-12-03T13:11:13.234Z,12.77
2022-12-03T13:13:44.323Z,13.90
2022-12-03T13:16:14.055Z,16.57
2022-12-03T13:18:43.669Z,15.40
2022-12-03T13:21:15.917Z,13.90
2022-12-03T13:23:43.042Z,13.30
2022-12-03T13:26:29.484Z,14.10
2022-12-03T13:29:07.130Z,14.77
2022-12-03T13:31:38.333Z,13.90
2022-12-03T13:34:12.236Z,13.57
2022-12-03T13:36:41.860Z,14.47
2022-12-03T13:39:13.196Z,15.23
2022-12-03T13:41:40.563Z,15.53
2022-12-03T13:44:16.062Z,14.90
2022-12-03T13:46:43.465Z,13.07
2022-12-03T13:49:19.244Z,13.10
2022-12-03T13:51:46.405Z,15.03
2022-12-03T13:54:16.339Z,15.03
2022-12-03T13:56:43.445Z,13.40
2022-12-03T13:59:10.512Z,16.03
2022-12-03T14:01:39.066Z,13.83
2022-12-03T14:04:06.216Z,16.10
2022-12-03T14:06:33.304Z,15.33
2022-12-03T14:09:00.440Z,12.80
2022-12-03T14:11:27.538Z,14.37
2022-12-03T14:13:54.621Z,13.63
2022-12-03T14:16:21.752Z,15.10
2022-12-03T14:18:50.252Z,15.93
2022-12-03T14:21:17.338Z,14.37
2022-12-03T14:23:44.436Z,14.40
2022-12-03T14:26:11.527Z,14.23
2022-12-03T14:28:38.605Z,14.93
2022-12-03T14:31:05.803Z,15.07
2022-12-03T14:33:32.901Z,13.30
2022-12-03T14:36:01.312Z,14.50
2022-12-03T14:38:28.404Z,15.50
2022-12-03T14:40:55.469Z,16.27
2022-12-03T14:43:22.568Z,15.97
2022-12-03T14:45:49.707Z,15.73
2022-12-03T14:48:16.841Z,16.57
2022-12-03T14:50:43.947Z,15.67
2022-12-03T14:53:12.358Z,14.87
2022-12-03T14:55:39.436Z,15.13
2022-12-03T14:58:06.492Z,16.33
2022-12-03T15:00:33.578Z,15.43
2022-12-03T15:03:00.737Z,14.63
2022-12-03T15:05:28.990Z,14.77
2022-12-03T15:07:56.512Z,15.70
2022-12-03T15:10:25.026Z,15.33
2022-12-03T15:12:52.117Z,15.33
2022-12-03T15:15:19.191Z,14.80
2022-12-03T15:17:46.266Z,15.90
2022-12-03T15:20:13.589Z,16.23
2022-12-03T15:22:40.680Z,17.30
2022-12-03T15:25:08.085Z,14.97
2022-12-03T15:27:36.572Z,15.67
2022-12-03T15:30:04.139Z,15.43
2022-12-03T15:32:31.249Z,17.03
2022-12-03T15:34:58.343Z,15.30
2022-12-03T15:37:25.467Z,15.97
2022-12-03T15:39:52.546Z,14.33
2022-12-03T15:42:19.667Z,14.83
2022-12-03T15:44:48.089Z,16.10
2022-12-03T15:47:15.204Z,15.57
2022-12-03T15:49:42.268Z,14.23
2022-12-03T15:52:09.368Z,17.23
2022-12-03T15:54:36.444Z,18.93
2022-12-03T15:57:03.529Z,16.40
2022-12-03T15:59:30.642Z,14.10
2022-12-03T16:01:59.171Z,15.50
2022-12-03T16:04:26.297Z,15.10
2022-12-03T16:06:53.412Z,18.03
2022-12-03T16:09:26.664Z,16.93
2022-12-03T16:11:54.563Z,17.20
2022-12-03T16:14:21.705Z,15.07
2022-12-03T16:16:48.826Z,16.37
2022-12-03T16:19:17.257Z,15.00
2022-12-03T16:21:44.345Z,17.83
2022-12-03T16:24:11.414Z,16.43
2022-12-03T16:26:38.611Z,16.83
2022-12-03T16:29:05.746Z,15.77
2022-12-03T16:31:32.901Z,16.97
2022-12-03T16:34:00.066Z,17.70
2022-12-03T16:36:28.525Z,16.00
2022-12-03T16:38:55.614Z,18.23
2022-12-03T16:41:22.742Z,15.53
2022-12-03T16:43:49.849Z,15.47
2022-12-03T16:46:17.104Z,15.10
2022-12-03T16:48:44.256Z,15.03
2022-12-03T16:51:11.569Z,16.77
2022-12-03T16:53:40.023Z,17.37
2022-12-03T16:56:07.175Z,18.00
2022-12-03T16:58:34.275Z,17.50
2022-12-03T17:01:01.359Z,17.03
2022-12-03T17:03:33.663Z,16.23
2022-12-03T17:06:01.311Z,16.47
2022-12-03T17:08:28.511Z,15.63
2022-12-03T17:10:57.066Z,16.83
2022-12-03T17:13:24.287Z,16.70
2022-12-03T17:15:51.460Z,19.00
2022-12-03T17:18:18.596Z,15.70
2022-12-03T17:20:45.701Z,16.97
2022-12-03T17:23:12.957Z,15.80
2022-12-03T17:25:40.044Z,16.80
2022-12-03T17:28:08.495Z,17.43
2022-12-03T17:30:37.588Z,15.50
2022-12-03T17:33:04.761Z,15.00
2022-12-03T17:35:31.941Z,16.03
2022-12-03T17:37:59.002Z,19.50
2022-12-03T17:40:26.097Z,17.03
2022-12-03T17:42:53.196Z,19.23
2022-12-03T17:45:21.591Z,15.33
2022-12-03T17:47:48.685Z,17.33
2022-12-03T17:50:15.844Z,15.30
2022-12-03T17:52:42.935Z,17.27
2022-12-03T17:55:13.145Z,16.13
2022-12-03T17:57:43.321Z,17.60
2022-12-03T18:00:11.037Z,16.20
2022-12-03T18:02:43.515Z,17.63
2022-12-03T18:05:10.891Z,17.43
2022-12-03T18:07:38.030Z,17.73
2022-12-03T18:10:05.733Z,17.00
2022-12-03T18:12:32.799Z,18.47
2022-12-03T18:14:59.927Z,17.20
2022-12-03T18:17:27.028Z,16.07
2022-12-03T18:19:55.717Z,16.40
2022-12-03T18:22:23.016Z,17.30
2022-12-03T18:24:51.864Z,18.83
2022-12-03T18:27:20.476Z,15.87
2022-12-03T18:29:47.623Z,14.60
2022-12-03T18:32:27.895Z,18.30
2022-12-03T18:34:57.410Z,15.67
2022-12-03T18:37:26.036Z,17.40
2022-12-03T18:39:53.548Z,18.03
2022-12-03T18:42:22.915Z,18.80
2022-12-03T18:44:50.703Z,15.80
2022-12-03T18:47:19.119Z,18.00
2022-12-03T18:49:46.336Z,17.70
2022-12-03T18:52:15.414Z,19.83
2022-12-03T18:54:42.616Z,15.83
2022-12-03T18:57:09.705Z,18.00
2022-12-03T18:59:37.307Z,17.30
2022-12-03T19:02:04.863Z,19.80
2022-12-03T19:04:32.154Z,15.07
2022-12-03T19:06:59.296Z,16.67
2022-12-03T19:09:27.781Z,20.00
2022-12-03T19:11:54.871Z,17.80
2022-12-03T19:14:21.987Z,15.10
2022-12-03T19:16:49.077Z,16.47
2022-12-03T19:19:16.261Z,16.43
2022-12-03T19:21:43.351Z,16.50
2022-12-03T19:24:25.891Z,17.63
2022-12-03T19:26:54.378Z,16.77
2022-12-03T19:29:22.275Z,16.63
2022-12-03T19:31:49.882Z,17.07
2022-12-03T19:34:17.124Z,16.63
2022-12-03T19:36:44.389Z,16.43
2022-12-03T19:39:11.567Z,17.27
2022-12-03T19:41:38.701Z,16.40
2022-12-03T19:44:10.894Z,16.93
2022-12-03T19:46:38.330Z,16.67
2022-12-03T19:49:05.447Z,17.10
2022-12-03T19:51:35.352Z,17.07
2022-12-03T19:54:02.854Z,16.47
2022-12-03T19:56:30.027Z,14.57
2022-12-03T19:58:57.582Z,14.90
2022-12-03T20:01:27.262Z,17.33
2022-12-03T20:03:55.317Z,15.60
2022-12-03T20:06:24.398Z,16.20
2022-12-03T20:08:52.247Z,17.20
2022-12-03T20:11:20.723Z,15.67
2022-12-03T20:13:48.355Z,16.37
2022-12-03T20:16:16.033Z,15.20
2022-12-03T20:18:45.936Z,16.73
2022-12-03T20:21:13.861Z,16.33
2022-12-03T20:23:40.994Z,17.57
2022-12-03T20:26:08.656Z,16.07
2022-12-03T20:28:35.747Z,16.70
2022-12-03T20:31:03.799Z,15.13
2022-12-03T20:33:30.988Z,17.90
2022-12-03T20:35:59.450Z,15.90
2022-12-03T20:38:26.574Z,14.53
2022-12-03T20:40:54.599Z,14.90
2022-12-03T20:43:21.779Z,15.23
2022-12-03T20:45:48.975Z,16.00
2022-12-03T20:48:16.112Z,15.73
2022-12-03T20:50:43.227Z,18.77
2022-12-03T20:53:24.144Z,16.53
2022-12-03T20:55:55.248Z,16.77
2022-12-03T20:58:22.350Z,16.60
2022-12-03T21:00:49.557Z,18.80
2022-12-03T21:03:16.733Z,18.47
2022-12-03T21:05:43.858Z,17.50
2022-12-03T21:08:12.771Z,15.83
2022-12-03T21:10:40.417Z,17.13
2022-12-03T21:13:07.566Z,15.60
2022-12-03T21:15:34.724Z,15.60
2022-12-03T21:18:01.819Z,15.60
2022-12-03T21:20:28.928Z,16.20
2022-12-03T21:22:56.079Z,18.60
2022-12-03T21:25:24.563Z,16.80
2022-12-03T21:27:51.645Z,16.20
2022-12-03T21:30:18.746Z,17.53
2022-12-03T21:32:45.868Z,15.77
2022-12-03T21:35:12.973Z,16.50
2022-12-03T21:37:40.049Z,16.87
2022-12-03T21:40:07.881Z,17.13
2022-12-03T21:42:37.400Z,16.70
2022-12-03T21:45:05.157Z,17.13
2022-12-03T21:47:37.005Z,15.17
2022-12-03T21:50:05.677Z,17.37
2022-12-03T21:52:33.771Z,16.30
2022-12-03T21:55:00.847Z,17.70
2022-12-03T21:57:27.953Z,16.13
2022-12-03T21:59:57.237Z,16.40
2022-12-03T22:02:24.730Z,18.57
2022-12-03T22:04:51.862Z,17.00
2022-12-03T22:07:18.957Z,15.67
2022-12-03T22:09:46.063Z,17.70
2022-12-03T22:12:13.172Z,18.70
2022-12-03T22:14:40.282Z,17.80
2022-12-03T22:17:08.717Z,16.13
2022-12-03T22:19:35.800Z,16.90
2022-12-03T22:22:02.958Z,18.30
2022-12-03T22:24:30.090Z,18.53
2022-12-03T22:26:57.159Z,17.00
2022-12-03T22:29:24.354Z,15.83
2022-12-03T22:31:51.503Z,18.50
2022-12-03T22:34:19.928Z,17.30
2022-12-03T22:36:47.028Z,17.23
2022-12-03T22:39:14.181Z,17.70
2022-12-03T22:41:41.287Z,17.07
2022-12-03T22:44:08.413Z,17.60
2022-12-03T22:46:35.533Z,17.60
2022-12-03T22:49:07.007Z,16.70
2022-12-03T22:51:35.972Z,15.83
2022-12-03T22:54:03.111Z,17.27
2022-12-03T22:56:30.703Z,18.43
2022-12-03T22:58:57.952Z,16.13
2022-12-03T23:01:25.841Z,15.23
2022-12-03T23:03:53.027Z,17.37
2022-12-03T23:06:20.961Z,17.00
2022-12-03T23:08:49.544Z,17.80
2022-12-03T23:11:16.904Z,19.03
2022-12-03T23:13:43.978Z,17.43
2022-12-03T23:16:13.870Z,16.00
2022-12-03T23:18:41.082Z,15.73
2022-12-03T23:21:08.457Z,15.80
2022-12-03T23:23:35.665Z,19.00
2022-12-03T23:26:05.042Z,15.20
2022-12-03T23:28:33.335Z,17.80
2022-12-03T23:31:00.512Z,17.23
2022-12-03T23:33:28.056Z,16.30
2022-12-03T23:35:55.298Z,15.63
2022-12-03T23:38:22.606Z,18.87
2022-12-03T23:40:49.684Z,16.80
2022-12-03T23:43:18.118Z,15.90
2022-12-03T23:45:45.215Z,17.27
2022-12-03T23:48:12.413Z,15.93
2022-12-03T23:50:39.705Z,16.17
2022-12-03T23:53:06.821Z,18.13
2022-12-03T23:55:33.985Z,16.97
2022-12-03T23:58:01.057Z,17.30
